createdAt,value
2022-12-13T00:02:48.832Z,-1.97956
2022-12-13T00:07:49.811Z,-2.02704
2022-12-13T00:12:50.950Z,-2.06193
2022-12-13T00:17:51.871Z,-2.09132
2022-12-13T00:22:52.831Z,-1.99539
2022-12-13T00:27:53.734Z,-1.9815
2022-12-13T00:32:54.632Z,-2.01897
2022-12-13T00:37:55.625Z,-1.98312
2022-12-13T00:42:56.529Z,-1.95502
2022-12-13T00:47:57.985Z,-1.94759
2022-12-13T00:52:58.935Z,-2.01122
2022-12-13T00:57:59.851Z,-2.10295
2022-12-13T01:03:00.815Z,-2.05256
2022-12-13T01:08:01.844Z,-2.18628
2022-12-13T01:13:02.908Z,-2.16529
2022-12-13T01:18:03.832Z,-2.22278
2022-12-13T01:23:04.774Z,-2.24087
2022-12-13T01:28:05.717Z,-2.16173
2022-12-13T01:33:14.155Z,-2.15592
2022-12-13T01:38:16.344Z,-2.18725
2022-12-13T01:43:17.375Z,-2.25411
2022-12-13T01:48:18.305Z,-2.3355
2022-12-13T01:53:19.243Z,-2.32323
2022-12-13T01:58:20.176Z,-2.32646
2022-12-13T02:03:21.959Z,-2.28544
2022-12-13T02:08:23.163Z,-2.19177
2022-12-13T02:13:24.084Z,-2.20308
2022-12-13T02:18:25.049Z,-2.15172
2022-12-13T02:23:25.976Z,-2.12007
2022-12-13T02:28:31.559Z,-2.09164
2022-12-13T02:33:33.291Z,-2.09358
2022-12-13T02:38:34.181Z,-2.10198
2022-12-13T02:43:35.158Z,-2.14914
2022-12-13T02:48:36.236Z,-2.16658
2022-12-13T02:53:37.375Z,-2.21438
2022-12-13T02:58:38.362Z,-2.25249
2022-12-13T03:03:39.311Z,-2.32291
2022-12-13T03:08:40.402Z,-2.28867
2022-12-13T03:13:41.339Z,-2.24248
2022-12-13T03:18:42.244Z,-2.21955
2022-12-13T03:23:43.172Z,-2.27704
2022-12-13T03:28:44.085Z,-2.38072
2022-12-13T03:33:45.047Z,-2.40527
2022-12-13T03:38:45.976Z,-2.43628
2022-12-13T03:43:46.904Z,-2.46406
2022-12-13T03:48:47.785Z,-2.45663
2022-12-13T03:53:48.691Z,-2.43499
2022-12-13T03:58:49.612Z,-2.40301
2022-12-13T04:03:50.546Z,-2.3397
2022-12-13T04:08:51.580Z,-2.31451
2022-12-13T04:13:52.705Z,-2.27091
2022-12-13T04:18:53.614Z,-2.1879
2022-12-13T04:23:54.506Z,-2.18111
2022-12-13T04:28:55.410Z,-2.17498
2022-12-13T04:33:57.133Z,-2.29125
2022-12-13T04:38:58.618Z,-2.32065
2022-12-13T04:44:01.783Z,-2.24959
2022-12-13T04:49:02.691Z,-2.25056
2022-12-13T04:54:12.997Z,-2.2835
2022-12-13T04:59:25.439Z,-2.26994
2022-12-13T05:04:32.368Z,-2.24539
2022-12-13T05:09:33.724Z,-2.24507
2022-12-13T05:14:34.618Z,-2.33163
2022-12-13T05:19:35.551Z,-2.29998
2022-12-13T05:24:36.499Z,-2.20663
2022-12-13T05:29:37.416Z,-2.14397
2022-12-13T05:34:38.711Z,-2.12071
2022-12-13T05:39:39.738Z,-1.88557
2022-12-13T05:44:40.692Z,-1.88331
2022-12-13T05:49:41.578Z,-1.87911
2022-12-13T05:54:42.981Z,-1.99119
2022-12-13T05:59:44.311Z,-1.98958
2022-12-13T06:04:45.346Z,-2.0012
2022-12-13T06:09:46.345Z,-2.0335
2022-12-13T06:14:47.263Z,-2.11393
2022-12-13T06:19:48.188Z,-2.15592
2022-12-13T06:24:49.167Z,-2.24894
2022-12-13T06:29:50.116Z,-2.35004
2022-12-13T06:34:51.052Z,-2.43273
2022-12-13T06:39:52.007Z,-2.45534
2022-12-13T06:44:56.010Z,-2.4014
2022-12-13T06:49:57.530Z,-2.38202
2022-12-13T06:55:06.690Z,-2.38299
2022-12-13T07:00:07.615Z,-2.34164
2022-12-13T07:05:08.572Z,-2.39235
2022-12-13T07:10:12.586Z,-2.3691
2022-12-13T07:15:23.180Z,-2.37362
2022-12-13T07:20:24.071Z,-2.33001
2022-12-13T07:25:27.842Z,-2.34778
2022-12-13T07:30:29.659Z,-2.22536
2022-12-13T07:35:30.611Z,-2.20631
2022-12-13T07:40:31.523Z,-2.26251
2022-12-13T07:45:32.450Z,-2.26671
2022-12-13T07:50:37.262Z,-2.23893
2022-12-13T07:55:38.845Z,-2.16561
2022-12-13T08:00:39.796Z,-2.08228
2022-12-13T08:05:40.833Z,-2.04545
2022-12-13T08:10:41.849Z,-1.8888
2022-12-13T08:15:42.879Z,-1.83583
2022-12-13T08:20:43.832Z,-1.74216
2022-12-13T08:25:44.771Z,-1.62265
2022-12-13T08:30:45.717Z,-1.53447
2022-12-13T08:35:46.589Z,-1.6346
2022-12-13T08:40:47.514Z,-1.66464
2022-12-13T08:45:52.584Z,-1.60004
2022-12-13T08:51:02.381Z,-1.58809
2022-12-13T08:56:04.333Z,-1.41367
2022-12-13T09:01:05.282Z,-1.42368
2022-12-13T09:06:06.199Z,-1.42627
2022-12-13T09:11:11.527Z,-1.31645
2022-12-13T09:16:25.202Z,-1.29997
2022-12-13T09:21:31.822Z,-1.22924
2022-12-13T09:26:37.751Z,-1.0813
2022-12-13T09:31:39.652Z,-0.81354
2022-12-13T09:36:40.580Z,-0.8229
2022-12-13T09:41:41.520Z,-0.79448
2022-12-13T09:46:44.405Z,-0.74215
2022-12-13T09:51:55.309Z,-0.70598
2022-12-13T09:57:11.411Z,-0.63621
2022-12-13T10:02:12.458Z,-0.67303
2022-12-13T10:07:13.675Z,-0.77348
2022-12-13T10:12:14.581Z,-0.73279
2022-12-13T10:17:15.502Z,-0.80998
2022-12-13T10:22:16.365Z,-0.8116
2022-12-13T10:27:17.282Z,-0.8888
2022-12-13T10:32:18.366Z,-0.79254
2022-12-13T10:37:19.233Z,-0.82678
2022-12-13T10:42:23.067Z,-0.851
2022-12-13T10:47:25.144Z,-0.76056
2022-12-13T10:52:30.862Z,-0.89041
2022-12-13T10:57:32.609Z,-0.77865
2022-12-13T11:02:33.589Z,-0.64008
2022-12-13T11:07:34.527Z,-0.58356
2022-12-13T11:12:35.437Z,-0.66689
2022-12-13T11:17:36.347Z,-0.63912
2022-12-13T11:22:37.300Z,-0.54964
2022-12-13T11:27:38.265Z,-0.46631
2022-12-13T11:32:39.249Z,-0.24505
2022-12-13T11:37:40.216Z,-0.24344
2022-12-13T11:42:41.137Z,-0.3019
2022-12-13T11:47:42.028Z,-0.38911
2022-12-13T11:52:42.929Z,-0.45016
2022-12-13T11:57:43.870Z,-0.45371
2022-12-13T12:02:44.858Z,-0.3426
2022-12-13T12:08:12.600Z,-0.45274
2022-12-13T12:13:32.582Z,-0.59034
2022-12-13T12:18:33.518Z,-0.55352
2022-12-13T12:23:38.583Z,-0.64105
2022-12-13T12:28:43.906Z,-0.51993
2022-12-13T12:33:45.630Z,-0.4802
2022-12-13T12:38:46.568Z,-0.53802
2022-12-13T12:43:47.500Z,-0.64138
2022-12-13T12:49:00.383Z,-0.58517
2022-12-13T12:54:02.609Z,-0.54351
2022-12-13T12:59:03.790Z,-0.46663
2022-12-13T13:04:04.732Z,-0.36133
2022-12-13T13:09:05.663Z,-0.37038
2022-12-13T13:14:06.698Z,-0.38136
2022-12-13T13:19:07.590Z,-0.37264
2022-12-13T13:24:08.509Z,-0.47406
2022-12-13T13:29:09.448Z,-0.65107
2022-12-13T13:34:10.466Z,-0.59422
2022-12-13T13:39:11.367Z,-0.71696
2022-12-13T13:44:12.333Z,-0.79093
2022-12-13T13:49:20.655Z,-0.79416
2022-12-13T13:54:21.572Z,-0.58679
2022-12-13T13:59:22.632Z,-0.50539
2022-12-13T14:04:23.577Z,-0.53995
2022-12-13T14:09:24.537Z,-0.66269
2022-12-13T14:14:25.577Z,-0.74764
2022-12-13T14:19:26.473Z,-0.76347
2022-12-13T14:24:27.472Z,-0.70921
2022-12-13T14:29:28.497Z,-0.71018
2022-12-13T14:34:29.662Z,-0.78253
2022-12-13T14:39:30.602Z,-0.77607
2022-12-13T14:44:31.586Z,-0.7877
2022-12-13T14:49:32.519Z,-0.77478
2022-12-13T14:54:33.492Z,-0.69467
2022-12-13T14:59:34.458Z,-0.61037
2022-12-13T15:04:35.477Z,-0.69273
2022-12-13T15:09:36.460Z,-0.79222
2022-12-13T15:14:37.432Z,-0.78382
2022-12-13T15:19:40.458Z,-0.79609
2022-12-13T15:24:50.003Z,-0.79028
2022-12-13T15:29:50.936Z,-0.71405
2022-12-13T15:34:52.027Z,-0.73634
2022-12-13T15:39:52.991Z,-0.73634
2022-12-13T15:44:54.147Z,-0.78834
2022-12-13T15:49:55.108Z,-0.77348
2022-12-13T15:54:56.104Z,-0.84842
2022-12-13T15:59:57.048Z,-0.95598
2022-12-13T16:04:58.444Z,-0.96793
2022-12-13T16:09:59.627Z,-0.97859
2022-12-13T16:15:09.512Z,-1.03318
2022-12-13T16:20:11.058Z,-1.05676
2022-12-13T16:25:12.042Z,-1.02639
2022-12-13T16:30:12.980Z,-0.99539
2022-12-13T16:35:13.952Z,-0.99216
2022-12-13T16:40:14.860Z,-0.99119
2022-12-13T16:45:41.125Z,-1.11296
2022-12-13T16:50:43.178Z,-1.26477
2022-12-13T16:55:44.140Z,-1.35844
2022-12-13T17:01:00.073Z,-1.49603
2022-12-13T17:06:01.117Z,-1.55676
2022-12-13T17:11:02.113Z,-1.62588
2022-12-13T17:16:03.020Z,-1.68337
2022-12-13T17:21:03.936Z,-1.79642
2022-12-13T17:26:04.902Z,-1.97762
2022-12-13T17:31:05.921Z,-2.0868
2022-12-13T17:36:06.872Z,-2.21309
2022-12-13T17:41:07.803Z,-2.36199
2022-12-13T17:46:08.855Z,-2.46503
2022-12-13T17:51:09.876Z,-2.58292
2022-12-13T17:56:10.870Z,-2.60521
2022-12-13T18:01:11.989Z,-2.68918
2022-12-13T18:06:12.991Z,-2.85908
2022-12-13T18:11:32.929Z,-2.97374
2022-12-13T18:16:37.416Z,-3.14654
2022-12-13T18:21:38.891Z,-3.14557
2022-12-13T18:26:39.817Z,-3.13395
2022-12-13T18:31:40.847Z,-3.3875
2022-12-13T18:36:41.883Z,-3.47277
2022-12-13T18:41:43.066Z,-3.46372
2022-12-13T18:46:46.119Z,-3.5351
2022-12-13T18:51:47.276Z,-3.61198
2022-12-13T18:56:48.288Z,-3.71824
2022-12-13T19:01:49.242Z,-3.74634
2022-12-13T19:06:50.197Z,-3.76217
2022-12-13T19:11:51.170Z,-3.88942
2022-12-13T19:16:52.138Z,-3.98245
2022-12-13T19:21:53.397Z,-3.98535
2022-12-13T19:26:54.380Z,-3.97825
2022-12-13T19:31:55.324Z,-4.0267
2022-12-13T19:36:58.229Z,-4.12004
2022-12-13T19:42:01.348Z,-4.19465
2022-12-13T19:47:02.487Z,-4.29284
2022-12-13T19:52:03.537Z,-4.32417
2022-12-13T19:57:07.302Z,-4.3274
2022-12-13T20:02:08.666Z,-4.38295
2022-12-13T20:07:09.621Z,-4.47307
2022-12-13T20:12:10.552Z,-4.54509
2022-12-13T20:17:11.513Z,-4.55607
2022-12-13T20:22:12.443Z,-4.57901
2022-12-13T20:27:13.394Z,-4.62196
2022-12-13T20:32:14.288Z,-4.66363
2022-12-13T20:37:15.247Z,-4.75245
2022-12-13T20:42:16.189Z,-4.85225
2022-12-13T20:47:17.092Z,-4.87777
2022-12-13T20:52:18.138Z,-4.9217
2022-12-13T20:57:19.089Z,-4.93235
2022-12-13T21:02:20.095Z,-5.0131
2022-12-13T21:07:21.098Z,-5.06801
2022-12-13T21:12:22.096Z,-5.13971
2022-12-13T21:17:23.173Z,-5.19656
2022-12-13T21:22:24.081Z,-5.21497
2022-12-13T21:27:25.154Z,-5.24468
2022-12-13T21:32:26.120Z,-5.31574
2022-12-13T21:37:27.221Z,-5.35547
2022-12-13T21:42:28.127Z,-5.36451
2022-12-13T21:47:29.061Z,-5.40391
2022-12-13T21:52:29.971Z,-5.4262
2022-12-13T21:57:30.956Z,-5.50178
2022-12-13T22:02:32.235Z,-5.49758
2022-12-13T22:07:33.205Z,-5.52859
2022-12-13T22:12:34.209Z,-5.54893
2022-12-13T22:17:36.386Z,-5.61321
2022-12-13T22:22:37.487Z,-5.69072
2022-12-13T22:27:38.395Z,-5.73142
2022-12-13T22:32:39.279Z,-5.75338
2022-12-13T22:37:40.332Z,-5.76049
2022-12-13T22:42:41.294Z,-5.80312
2022-12-13T22:47:49.436Z,-5.81152
2022-12-13T22:52:50.456Z,-5.82347
2022-12-13T22:57:51.588Z,-5.87386
2022-12-13T23:02:52.521Z,-5.94588
2022-12-13T23:07:53.487Z,-6.00886
2022-12-13T23:12:54.405Z,-6.05893
2022-12-13T23:17:55.293Z,-6.04633
2022-12-13T23:22:56.201Z,-6.07895
2022-12-13T23:27:57.120Z,-6.09575
2022-12-13T23:32:58.013Z,-6.1303
2022-12-13T23:37:59.360Z,-6.10834
2022-12-13T23:43:00.271Z,-6.14064
2022-12-13T23:48:01.285Z,-6.15647
2022-12-13T23:53:02.341Z,-6.17488
2022-12-13T23:58:03.273Z,-6.21331
